sensor_id;sensor_type;location;lat;lon;timestamp;P1;durP1;ratioP1;P2;durP2;ratioP2
18473;SDS011;30265;52.408;13.500;2023-02-11T00:04:03;39.13;;;13.52;;
18473;SDS011;30265;52.408;13.500;2023-02-11T00:14:26;26.23;;;12.02;;
18473;SDS011;30265;52.408;13.500;2023-02-11T00:24:48;39.67;;;14.63;;
18473;SDS011;30265;52.408;13.500;2023-02-11T00:35:12;45.47;;;17.27;;
18473;SDS011;30265;52.408;13.500;2023-02-11T00:45:33;35.30;;;14.82;;
18473;SDS011;30265;52.408;13.500;2023-02-11T00:55:57;39.47;;;13.68;;
18473;SDS011;30265;52.408;13.500;2023-02-11T01:06:20;55.17;;;19.05;;
18473;SDS011;30265;52.408;13.500;2023-02-11T01:16:43;50.80;;;18.98;;
18473;SDS011;30265;52.408;13.500;2023-02-11T01:27:05;24.00;;;11.77;;
18473;SDS011;30265;52.408;13.500;2023-02-11T01:37:28;50.13;;;20.33;;
18473;SDS011;30265;52.408;13.500;2023-02-11T01:47:52;55.92;;;24.65;;
18473;SDS011;30265;52.408;13.500;2023-02-11T01:58:15;38.78;;;16.65;;
18473;SDS011;30265;52.408;13.500;2023-02-11T02:08:39;40.97;;;15.35;;
18473;SDS011;30265;52.408;13.500;2023-02-11T02:19:11;52.50;;;21.27;;
18473;SDS011;30265;52.408;13.500;2023-02-11T02:29:53;34.25;;;15.15;;
18473;SDS011;30265;52.408;13.500;2023-02-11T02:40:40;47.67;;;18.25;;
18473;SDS011;30265;52.408;13.500;2023-02-11T02:51:10;31.75;;;13.88;;
18473;SDS011;30265;52.408;13.500;2023-02-11T03:01:45;53.38;;;22.13;;
18473;SDS011;30265;52.408;13.500;2023-02-11T03:12:15;32.45;;;13.88;;
18473;SDS011;30265;52.408;13.500;2023-02-11T03:22:39;27.08;;;12.77;;
18473;SDS011;30265;52.408;13.500;2023-02-11T03:33:11;45.67;;;18.48;;
18473;SDS011;30265;52.408;13.500;2023-02-11T03:43:41;44.75;;;17.13;;
18473;SDS011;30265;52.408;13.500;2023-02-11T03:54:06;32.07;;;11.83;;
18473;SDS011;30265;52.408;13.500;2023-02-11T04:04:32;23.75;;;11.07;;
18473;SDS011;30265;52.408;13.500;2023-02-11T04:14:54;67.60;;;25.27;;
18473;SDS011;30265;52.408;13.500;2023-02-11T04:25:17;50.90;;;21.10;;
18473;SDS011;30265;52.408;13.500;2023-02-11T04:35:39;28.65;;;11.93;;
18473;SDS011;30265;52.408;13.500;2023-02-11T04:46:02;47.25;;;18.77;;
18473;SDS011;30265;52.408;13.500;2023-02-11T04:56:23;54.40;;;20.50;;
18473;SDS011;30265;52.408;13.500;2023-02-11T05:06:46;52.90;;;23.70;;
18473;SDS011;30265;52.408;13.500;2023-02-11T05:17:08;41.13;;;17.73;;
18473;SDS011;30265;52.408;13.500;2023-02-11T05:27:31;54.45;;;19.40;;
18473;SDS011;30265;52.408;13.500;2023-02-11T05:37:53;66.43;;;26.58;;
18473;SDS011;30265;52.408;13.500;2023-02-11T05:48:16;59.80;;;24.58;;
18473;SDS011;30265;52.408;13.500;2023-02-11T05:58:38;53.03;;;19.33;;
18473;SDS011;30265;52.408;13.500;2023-02-11T06:09:02;75.03;;;28.60;;
18473;SDS011;30265;52.408;13.500;2023-02-11T06:19:24;63.92;;;22.98;;
18473;SDS011;30265;52.408;13.500;2023-02-11T06:29:47;58.15;;;23.42;;
18473;SDS011;30265;52.408;13.500;2023-02-11T06:40:11;65.38;;;24.48;;
18473;SDS011;30265;52.408;13.500;2023-02-11T06:50:35;71.32;;;26.00;;
18473;SDS011;30265;52.408;13.500;2023-02-11T07:00:57;43.40;;;16.73;;
18473;SDS011;30265;52.408;13.500;2023-02-11T07:11:21;75.78;;;29.80;;
18473;SDS011;30265;52.408;13.500;2023-02-11T07:21:44;72.35;;;26.98;;
18473;SDS011;30265;52.408;13.500;2023-02-11T07:32:09;62.92;;;24.10;;
18473;SDS011;30265;52.408;13.500;2023-02-11T07:42:30;72.70;;;26.33;;
18473;SDS011;30265;52.408;13.500;2023-02-11T07:52:55;85.03;;;32.95;;
18473;SDS011;30265;52.408;13.500;2023-02-11T08:03:16;64.32;;;24.95;;
18473;SDS011;30265;52.408;13.500;2023-02-11T08:13:40;90.50;;;34.10;;
18473;SDS011;30265;52.408;13.500;2023-02-11T08:24:02;71.90;;;24.98;;
18473;SDS011;30265;52.408;13.500;2023-02-11T08:34:26;87.13;;;30.60;;
18473;SDS011;30265;52.408;13.500;2023-02-11T08:44:48;84.90;;;31.83;;
18473;SDS011;30265;52.408;13.500;2023-02-11T08:55:11;74.63;;;30.98;;
18473;SDS011;30265;52.408;13.500;2023-02-11T09:05:33;66.75;;;24.00;;
18473;SDS011;30265;52.408;13.500;2023-02-11T09:15:57;68.57;;;27.00;;
18473;SDS011;30265;52.408;13.500;2023-02-11T09:26:20;62.13;;;20.52;;
18473;SDS011;30265;52.408;13.500;2023-02-11T09:36:44;63.53;;;20.27;;
18473;SDS011;30265;52.408;13.500;2023-02-11T09:47:11;65.65;;;24.58;;
18473;SDS011;30265;52.408;13.500;2023-02-11T09:57:45;68.93;;;26.90;;
18473;SDS011;30265;52.408;13.500;2023-02-11T10:08:08;83.07;;;28.25;;
18473;SDS011;30265;52.408;13.500;2023-02-11T10:18:44;49.38;;;18.50;;
18473;SDS011;30265;52.408;13.500;2023-02-11T10:29:15;71.15;;;25.42;;
18473;SDS011;30265;52.408;13.500;2023-02-11T10:39:47;64.60;;;25.50;;
18473;SDS011;30265;52.408;13.500;2023-02-11T10:50:20;48.22;;;19.20;;
18473;SDS011;30265;52.408;13.500;2023-02-11T11:00:48;67.25;;;21.02;;
18473;SDS011;30265;52.408;13.500;2023-02-11T11:11:13;73.70;;;25.20;;
18473;SDS011;30265;52.408;13.500;2023-02-11T11:21:41;77.45;;;23.98;;
18473;SDS011;30265;52.408;13.500;2023-02-11T11:32:04;65.93;;;23.42;;
18473;SDS011;30265;52.408;13.500;2023-02-11T11:42:33;63.42;;;22.17;;
18473;SDS011;30265;52.408;13.500;2023-02-11T11:52:59;62.88;;;23.58;;
18473;SDS011;30265;52.408;13.500;2023-02-11T12:14:07;92.57;;;35.53;;
18473;SDS011;30265;52.408;13.500;2023-02-11T12:24:51;59.13;;;24.40;;
18473;SDS011;30265;52.408;13.500;2023-02-11T12:35:27;52.80;;;19.20;;
18473;SDS011;30265;52.408;13.500;2023-02-11T12:46:04;58.22;;;19.88;;
18473;SDS011;30265;52.408;13.500;2023-02-11T12:56:34;55.22;;;21.63;;
18473;SDS011;30265;52.408;13.500;2023-02-11T13:07:02;50.95;;;19.38;;
18473;SDS011;30265;52.408;13.500;2023-02-11T13:17:27;48.65;;;17.70;;
18473;SDS011;30265;52.408;13.500;2023-02-11T13:27:58;36.50;;;14.48;;
18473;SDS011;30265;52.408;13.500;2023-02-11T13:38:25;37.90;;;15.43;;
18473;SDS011;30265;52.408;13.500;2023-02-11T13:48:52;38.90;;;13.63;;
18473;SDS011;30265;52.408;13.500;2023-02-11T14:10:08;48.03;;;17.48;;
18473;SDS011;30265;52.408;13.500;2023-02-11T14:21:09;51.40;;;16.38;;
18473;SDS011;30265;52.408;13.500;2023-02-11T14:31:36;49.63;;;18.92;;
18473;SDS011;30265;52.408;13.500;2023-02-11T14:42:03;45.20;;;17.10;;
18473;SDS011;30265;52.408;13.500;2023-02-11T14:52:27;39.83;;;15.50;;
18473;SDS011;30265;52.408;13.500;2023-02-11T15:02:51;47.97;;;17.00;;
18473;SDS011;30265;52.408;13.500;2023-02-11T15:13:15;44.03;;;16.00;;
18473;SDS011;30265;52.408;13.500;2023-02-11T15:23:41;40.88;;;14.77;;
18473;SDS011;30265;52.408;13.500;2023-02-11T15:34:16;46.08;;;17.38;;
18473;SDS011;30265;52.408;13.500;2023-02-11T15:44:44;45.60;;;16.15;;
18473;SDS011;30265;52.408;13.500;2023-02-11T15:55:16;25.25;;;8.80;;
18473;SDS011;30265;52.408;13.500;2023-02-11T16:05:39;26.05;;;13.50;;
18473;SDS011;30265;52.408;13.500;2023-02-11T16:16:03;32.45;;;13.13;;
18473;SDS011;30265;52.408;13.500;2023-02-11T16:26:28;33.50;;;14.55;;
18473;SDS011;30265;52.408;13.500;2023-02-11T16:36:53;31.87;;;11.80;;
18473;SDS011;30265;52.408;13.500;2023-02-11T16:47:16;26.05;;;11.85;;
18473;SDS011;30265;52.408;13.500;2023-02-11T16:57:42;26.48;;;9.68;;
18473;SDS011;30265;52.408;13.500;2023-02-11T17:08:04;22.48;;;9.18;;
18473;SDS011;30265;52.408;13.500;2023-02-11T17:18:27;28.17;;;10.88;;
18473;SDS011;30265;52.408;13.500;2023-02-11T17:28:49;24.42;;;11.13;;
18473;SDS011;30265;52.408;13.500;2023-02-11T17:39:12;26.38;;;10.48;;
18473;SDS011;30265;52.408;13.500;2023-02-11T17:49:35;17.70;;;8.43;;
18473;SDS011;30265;52.408;13.500;2023-02-11T17:59:58;19.17;;;9.65;;
18473;SDS011;30265;52.408;13.500;2023-02-11T18:10:22;22.02;;;12.55;;
18473;SDS011;30265;52.408;13.500;2023-02-11T18:20:45;24.13;;;11.48;;
18473;SDS011;30265;52.408;13.500;2023-02-11T18:31:16;20.42;;;8.55;;
18473;SDS011;30265;52.408;13.500;2023-02-11T18:41:40;27.95;;;12.52;;
18473;SDS011;30265;52.408;13.500;2023-02-11T18:52:02;24.67;;;7.53;;
18473;SDS011;30265;52.408;13.500;2023-02-11T19:02:26;19.08;;;8.00;;
18473;SDS011;30265;52.408;13.500;2023-02-11T19:12:51;19.00;;;9.32;;
18473;SDS011;30265;52.408;13.500;2023-02-11T19:23:16;54.63;;;19.80;;
18473;SDS011;30265;52.408;13.500;2023-02-11T19:33:39;20.75;;;8.73;;
18473;SDS011;30265;52.408;13.500;2023-02-11T19:44:10;24.95;;;9.70;;
18473;SDS011;30265;52.408;13.500;2023-02-11T19:54:34;20.90;;;10.07;;
18473;SDS011;30265;52.408;13.500;2023-02-11T20:05:01;28.17;;;11.60;;
18473;SDS011;30265;52.408;13.500;2023-02-11T20:15:24;25.88;;;9.82;;
18473;SDS011;30265;52.408;13.500;2023-02-11T20:25:47;17.52;;;7.88;;
18473;SDS011;30265;52.408;13.500;2023-02-11T20:36:12;24.27;;;11.18;;
18473;SDS011;30265;52.408;13.500;2023-02-11T20:46:41;22.08;;;9.30;;
18473;SDS011;30265;52.408;13.500;2023-02-11T21:07:30;21.25;;;9.00;;
18473;SDS011;30265;52.408;13.500;2023-02-11T21:17:58;14.25;;;5.75;;
18473;SDS011;30265;52.408;13.500;2023-02-11T21:28:28;12.27;;;5.35;;
18473;SDS011;30265;52.408;13.500;2023-02-11T21:38:50;21.77;;;6.05;;
18473;SDS011;30265;52.408;13.500;2023-02-11T21:49:13;27.60;;;11.02;;
18473;SDS011;30265;52.408;13.500;2023-02-11T21:59:35;42.17;;;15.85;;
18473;SDS011;30265;52.408;13.500;2023-02-11T22:09:59;30.95;;;13.82;;
18473;SDS011;30265;52.408;13.500;2023-02-11T22:20:22;20.77;;;7.75;;
18473;SDS011;30265;52.408;13.500;2023-02-11T22:30:46;59.72;;;17.20;;
18473;SDS011;30265;52.408;13.500;2023-02-11T22:41:13;33.00;;;8.95;;
18473;SDS011;30265;52.408;13.500;2023-02-11T22:51:37;15.10;;;6.43;;
18473;SDS011;30265;52.408;13.500;2023-02-11T23:02:03;23.60;;;7.38;;
18473;SDS011;30265;52.408;13.500;2023-02-11T23:12:27;32.67;;;6.00;;
18473;SDS011;30265;52.408;13.500;2023-02-11T23:22:49;18.65;;;5.97;;
18473;SDS011;30265;52.408;13.500;2023-02-11T23:33:20;21.40;;;6.25;;
18473;SDS011;30265;52.408;13.500;2023-02-11T23:43:43;22.23;;;6.85;;
18473;SDS011;30265;52.408;13.500;2023-02-11T23:54:07;24.85;;;6.35;;
